Cimbria — V2CC7 — position and weather

sailwx.info

Track history (hours):
 
Tides and Currents Weather Stations Pressure Air Temp Water Temp Dewpoint Dewpoint Depression Visibility Wind Speed Wind Dir Waves Ship Positions

Cimbria

Last reported at 2014-Oct-25 11:09 UTC. Time now 2014-Oct-26 06:09 UTC.
Position N 38°40' W 009°48'.

Length 109 m; draft 4.2 m.

Type: Cargo ship. MMSI: 304981000.

Date/timePositionNaut miles runAvg speedWind from/ knotsBaromVisibWave heightAir tempDewpointWater temp
2014-Oct-25 11:09N 38°40' W 009°48'711.4
2014-Oct-25 10:33N 38°37' W 009°40'1212.5
2014-Oct-25 09:33N 38°36' W 009°24'1110.7
2014-Oct-25 08:33N 38°41' W 009°12'0 0.4
2014-Oct-25 07:32N 38°41' W 009°12'0 0.0
2014-Oct-25 06:32N 38°41' W 009°12'0 0.0
2014-Oct-25 05:33N 38°41' W 009°12'0 0.0
2014-Oct-25 04:33N 38°41' W 009°12'0 0.0
2014-Oct-25 03:33N 38°41' W 009°12'0 0.0
2014-Oct-25 02:33N 38°41' W 009°12'3 2.6
2014-Oct-25 01:33N 38°41' W 009°15'1110.8
2014-Oct-25 00:33N 38°34' W 009°25'1212.3
2014-Oct-24 23:33N 38°23' W 009°32'1212.0
2014-Oct-24 22:32N 38°12' W 009°40'1212.1
2014-Oct-24 21:33N 38°02' W 009°47'1211.9
2014-Oct-24 20:33N 37°51' W 009°55'1211.8
2014-Oct-24 19:33N 37°41' W 010°01'1212.0
2014-Oct-24 18:33N 37°30' W 010°09'1212.4
2014-Oct-24 17:33N 37°20' W 010°17'1212.2
2014-Oct-24 16:32N 37°09' W 010°23'1412.2
2014-Oct-24 15:26N 36°57' W 010°31'1111.8
2014-Oct-24 14:30N 36°47' W 010°38'1111.8
2014-Oct-24 13:33N 36°37' W 010°44'1212.1
2014-Oct-24 12:33N 36°26' W 010°52'1212.1
2014-Oct-24 11:33N 36°16' W 010°58'1211.4
2014-Oct-24 10:33N 36°06' W 011°05'1111.4
2014-Oct-24 09:33N 35°56' W 011°12'1111.1
2014-Oct-24 08:33N 35°46' W 011°18'1212.1
2014-Oct-24 07:33N 35°35' W 011°25'1711.6
2014-Oct-24 06:05N 35°20' W 011°36'3112.0
2014-Oct-24 03:31N 34°53' W 011°53'21811.9
2014-Oct-23 09:12N 31°41' W 013°57'14411.1
2014-Oct-22 20:16N 29°32' W 015°12'  
Track history (hours):
 
Tides and Currents Weather Stations Pressure Air Temp Water Temp Dewpoint Dewpoint Depression Visibility Wind Speed Wind Dir Waves Ship Positions

Cimbria

Last reported at 2014-Oct-25 11:09 UTC. Time now 2014-Oct-26 06:09 UTC.
Position N 38°40' W 009°48'.

Length 109 m; draft 4.2 m.

Type: Cargo ship. MMSI: 304981000.

Date/timePositionNaut miles runAvg speedWind from/ knotsBaromVisibWave heightAir tempDewpointWater temp
2014-Oct-25 11:09N 38°40' W 009°48'711.4
2014-Oct-25 10:33N 38°37' W 009°40'1212.5
2014-Oct-25 09:33N 38°36' W 009°24'1110.7
2014-Oct-25 08:33N 38°41' W 009°12'0 0.4
2014-Oct-25 07:32N 38°41' W 009°12'0 0.0
2014-Oct-25 06:32N 38°41' W 009°12'0 0.0
2014-Oct-25 05:33N 38°41' W 009°12'0 0.0
2014-Oct-25 04:33N 38°41' W 009°12'0 0.0
2014-Oct-25 03:33N 38°41' W 009°12'0 0.0
2014-Oct-25 02:33N 38°41' W 009°12'3 2.6
2014-Oct-25 01:33N 38°41' W 009°15'1110.8
2014-Oct-25 00:33N 38°34' W 009°25'1212.3
2014-Oct-24 23:33N 38°23' W 009°32'1212.0
2014-Oct-24 22:32N 38°12' W 009°40'1212.1
2014-Oct-24 21:33N 38°02' W 009°47'1211.9
2014-Oct-24 20:33N 37°51' W 009°55'1211.8
2014-Oct-24 19:33N 37°41' W 010°01'1212.0
2014-Oct-24 18:33N 37°30' W 010°09'1212.4
2014-Oct-24 17:33N 37°20' W 010°17'1212.2
2014-Oct-24 16:32N 37°09' W 010°23'1412.2
2014-Oct-24 15:26N 36°57' W 010°31'1111.8
2014-Oct-24 14:30N 36°47' W 010°38'1111.8
2014-Oct-24 13:33N 36°37' W 010°44'1212.1
2014-Oct-24 12:33N 36°26' W 010°52'1212.1
2014-Oct-24 11:33N 36°16' W 010°58'1211.4
2014-Oct-24 10:33N 36°06' W 011°05'1111.4
2014-Oct-24 09:33N 35°56' W 011°12'1111.1
2014-Oct-24 08:33N 35°46' W 011°18'1212.1
2014-Oct-24 07:33N 35°35' W 011°25'1711.6
2014-Oct-24 06:05N 35°20' W 011°36'3112.0
2014-Oct-24 03:31N 34°53' W 011°53'21811.9
2014-Oct-23 09:12N 31°41' W 013°57'14411.1
2014-Oct-22 20:16N 29°32' W 015°12'  

Dump ship's entire track history